Time;durP1;ratioP1;P1;durP2;ratioP2;P2;SDS_P1;SDS_P2;PMS_P1;PMS_P2;Temp;Humidity;BMP_temperature;BMP_pressure;BME280_temperature;BME280_humidity;BME280_pressure;Samples;Min_cycle;Max_cycle;Signal;HPM_P1;HPM_P2
2022/05/03 00:02:23;;;;;;;5.63;4.30;;;5.20;99.90;;;;;;4991604;28;20116;-81
2022/05/03 00:05:09;;;;;;;6.85;4.88;;;5.30;99.90;;;;;;4952742;29;20055;-81
2022/05/03 00:07:51;;;;;;;8.18;4.85;;;5.30;99.90;;;;;;4952510;29;20065;-81
2022/05/03 00:10:44;;;;;;;7.38;5.15;;;5.30;99.90;;;;;;4952522;29;20142;-82
2022/05/03 00:13:14;;;;;;;5.40;4.60;;;5.30;99.90;;;;;;4936429;29;20098;-81
2022/05/03 00:15:42;;;;;;;7.80;4.90;;;5.30;99.90;;;;;;4952787;29;20457;-83
2022/05/03 00:18:08;;;;;;;9.20;4.90;;;5.20;99.90;;;;;;4936076;29;20051;-82
2022/05/03 00:20:35;;;;;;;8.40;5.63;;;5.10;99.90;;;;;;4936793;29;20103;-81
2022/05/03 00:23:02;;;;;;;8.73;5.30;;;5.00;99.90;;;;;;4936614;29;20090;-83
2022/05/03 00:25:30;;;;;;;6.82;4.60;;;5.00;99.90;;;;;;4952253;29;20066;-81
2022/05/03 00:27:56;;;;;;;7.85;5.13;;;5.00;99.90;;;;;;4936365;29;20181;-80
2022/05/03 00:30:23;;;;;;;9.45;5.28;;;4.90;99.90;;;;;;4952663;29;20055;-81
2022/05/03 00:32:48;;;;;;;8.05;5.25;;;4.90;99.90;;;;;;4960952;28;20094;-81
2022/05/03 00:35:16;;;;;;;7.13;5.28;;;4.80;99.90;;;;;;4991040;28;20500;-82
2022/05/03 00:37:41;;;;;;;8.48;5.63;;;4.70;99.90;;;;;;4974579;28;20517;-81
2022/05/03 00:40:11;;;;;;;9.18;5.80;;;4.70;99.90;;;;;;4974622;28;20153;-81
2022/05/03 00:42:59;;;;;;;9.30;5.28;;;4.60;99.90;;;;;;5047206;28;20119;-81
2022/05/03 00:45:34;;;;;;;8.40;5.70;;;4.60;99.90;;;;;;4990918;28;20058;-81
2022/05/03 00:48:06;;;;;;;7.85;5.18;;;4.50;99.90;;;;;;4990907;28;20070;-81
2022/05/03 00:51:07;;;;;;;9.50;6.00;;;4.50;99.90;;;;;;4990727;28;20145;-81
2022/05/03 00:53:52;;;;;;;9.05;4.97;;;4.50;99.90;;;;;;4990890;28;20046;-82
2022/05/03 00:56:30;;;;;;;9.25;5.28;;;4.50;99.90;;;;;;4990655;28;20164;-81
2022/05/03 00:58:57;;;;;;;9.27;5.70;;;4.50;99.90;;;;;;4990778;28;20085;-82
2022/05/03 01:01:35;;;;;;;8.60;5.45;;;4.50;99.90;;;;;;4990782;28;20050;-81
2022/05/03 01:04:01;;;;;;;7.68;5.40;;;4.50;99.90;;;;;;4974686;28;20062;-81
2022/05/03 01:06:39;;;;;;;8.90;5.82;;;4.50;99.90;;;;;;4990813;28;20050;-81
2022/05/03 01:09:06;;;;;;;8.95;5.63;;;4.50;99.90;;;;;;4990621;28;20432;-82
2022/05/03 01:12:01;;;;;;;9.68;6.05;;;4.40;99.90;;;;;;4990496;28;20057;-82
2022/05/03 01:14:38;;;;;;;10.23;6.22;;;4.40;99.90;;;;;;4971218;28;20050;-81
2022/05/03 01:17:30;;;;;;;8.77;5.50;;;4.40;99.90;;;;;;4955206;28;20190;-81
2022/05/03 01:19:55;;;;;;;9.45;5.78;;;4.40;99.90;;;;;;4970844;28;20061;-82
2022/05/03 01:22:52;;;;;;;10.80;6.15;;;4.50;99.90;;;;;;4976282;28;20088;-81
2022/05/03 01:25:50;;;;;;;11.80;5.88;;;4.50;99.90;;;;;;4974546;28;20074;-81
2022/05/03 01:28:44;;;;;;;8.30;5.43;;;4.50;99.90;;;;;;4990094;28;20062;-81
2022/05/03 01:31:12;;;;;;;7.35;5.20;;;4.50;99.90;;;;;;4976419;28;20047;-81
2022/05/03 01:33:41;;;;;;;9.43;5.30;;;4.50;99.90;;;;;;4962082;28;20099;-82
2022/05/03 01:36:09;;;;;;;7.35;5.20;;;4.50;99.90;;;;;;4978088;28;20124;-81
2022/05/03 01:39:03;;;;;;;8.43;5.32;;;4.40;99.90;;;;;;4977717;28;20090;-81
2022/05/03 01:41:58;;;;;;;9.00;5.43;;;4.30;99.90;;;;;;4975860;28;20058;-82
2022/05/03 01:44:39;;;;;;;10.02;5.93;;;4.20;99.90;;;;;;4991734;28;20423;-83
2022/05/03 01:47:10;;;;;;;9.93;5.45;;;4.20;99.90;;;;;;4977711;28;20141;-82
2022/05/03 01:53:16;;;;;;;8.07;5.18;;;4.00;99.90;;;;;;5034794;28;19921;-81
2022/05/03 01:56:04;;;;;;;9.05;5.38;;;3.90;99.90;;;;;;5035311;28;20060;-81
2022/05/03 01:58:35;;;;;;;8.52;5.93;;;3.90;99.90;;;;;;5050803;28;20077;-82
2022/05/03 02:01:05;;;;;;;8.10;5.75;;;3.90;99.90;;;;;;5016846;28;20136;-82
2022/05/03 02:03:58;;;;;;;9.25;6.10;;;3.80;99.90;;;;;;5017652;28;20487;-81
2022/05/03 02:06:39;;;;;;;9.52;6.40;;;3.80;99.90;;;;;;5035250;28;20053;-81
2022/05/03 02:09:06;;;;;;;9.77;6.03;;;3.70;99.90;;;;;;5035337;28;20055;-82
2022/05/03 02:12:03;;;;;;;11.77;6.40;;;3.90;99.90;;;;;;5017609;28;20052;-82
2022/05/03 02:14:46;;;;;;;18.13;6.20;;;3.60;99.90;;;;;;5000458;28;20054;-81
2022/05/03 02:17:30;;;;;;;12.43;6.28;;;3.60;99.90;;;;;;5035023;28;20049;-81
2022/05/03 02:20:21;;;;;;;11.35;6.30;;;3.60;99.90;;;;;;5035169;28;20102;-81
2022/05/03 02:22:56;;;;;;;9.00;5.80;;;3.50;99.90;;;;;;5034849;28;20176;-81
2022/05/03 02:25:24;;;;;;;11.68;6.72;;;3.50;99.90;;;;;;5033864;28;20076;-81
2022/05/03 02:28:03;;;;;;;10.90;6.25;;;3.40;99.90;;;;;;5017298;28;20136;-82
2022/05/03 02:30:33;;;;;;;13.27;6.55;;;3.50;99.90;;;;;;5035020;28;20046;-81
2022/05/03 02:33:09;;;;;;;11.27;6.75;;;3.40;99.90;;;;;;5033865;28;20510;-81
2022/05/03 02:35:35;;;;;;;10.85;6.88;;;3.40;99.90;;;;;;5016638;28;20488;-81
2022/05/03 02:38:06;;;;;;;12.80;7.13;;;3.40;99.90;;;;;;5016753;28;20060;-81
2022/05/03 02:40:33;;;;;;;12.10;7.03;;;3.40;99.90;;;;;;5034690;28;20045;-81
2022/05/03 02:42:59;;;;;;;12.52;7.47;;;3.30;99.90;;;;;;5033308;28;20049;-82
2022/05/03 02:45:26;;;;;;;11.70;6.80;;;3.30;99.90;;;;;;5035871;28;20053;-81
2022/05/03 02:48:30;;;;;;;12.43;6.68;;;3.30;99.90;;;;;;5054407;28;20083;-81
2022/05/03 02:51:04;;;;;;;8.70;6.15;;;3.40;99.90;;;;;;5054901;28;20052;-81
2022/05/03 02:53:54;;;;;;;8.43;5.55;;;3.40;99.90;;;;;;5054315;28;20086;-81
2022/05/03 02:56:27;;;;;;;10.13;5.78;;;3.50;99.90;;;;;;5054229;28;20045;-81
2022/05/03 02:59:17;;;;;;;9.68;6.10;;;3.50;99.90;;;;;;5054144;28;20124;-81
2022/05/03 03:02:21;;;;;;;8.95;5.82;;;3.60;99.90;;;;;;5053019;28;20053;-81
2022/05/03 03:05:07;;;;;;;10.75;5.85;;;3.60;99.90;;;;;;5054098;28;20509;-81
2022/05/03 03:07:46;;;;;;;8.73;6.20;;;3.50;99.90;;;;;;5019860;28;20111;-82
2022/05/03 03:10:19;;;;;;;11.02;6.47;;;3.40;99.90;;;;;;5036552;28;20112;-81
2022/05/03 03:12:55;;;;;;;11.43;6.43;;;3.40;99.90;;;;;;5053864;28;20049;-82
2022/05/03 03:15:27;;;;;;;10.23;5.93;;;3.30;99.90;;;;;;5052956;28;20052;-81
2022/05/03 03:17:54;;;;;;;9.25;6.05;;;3.20;99.90;;;;;;5053801;28;20395;-88
2022/05/03 03:20:25;;;;;;;11.13;5.93;;;3.20;99.90;;;;;;5036396;28;20098;-81
2022/05/03 03:22:51;;;;;;;10.70;6.67;;;3.10;99.90;;;;;;5053693;28;20048;-83
2022/05/03 03:25:21;;;;;;;11.98;7.20;;;3.10;99.90;;;;;;5053708;28;20653;-82
2022/05/03 03:27:49;;;;;;;12.10;7.07;;;3.00;99.90;;;;;;5053603;28;20125;-81
2022/05/03 03:30:16;;;;;;;13.15;6.85;;;3.00;99.90;;;;;;5035812;28;20098;-81
2022/05/03 03:33:03;;;;;;;12.65;6.70;;;3.00;99.90;;;;;;5019472;28;20068;-81
2022/05/03 03:35:31;;;;;;;12.95;6.95;;;3.00;99.90;;;;;;5053561;28;20053;-81
2022/05/03 03:38:01;;;;;;;10.65;6.45;;;2.90;99.90;;;;;;5053449;28;20133;-81
2022/05/03 03:40:27;;;;;;;11.27;7.07;;;2.90;99.90;;;;;;5053562;28;20045;-81
2022/05/03 03:42:53;;;;;;;9.43;6.80;;;2.90;99.90;;;;;;5035849;28;20128;-81
2022/05/03 03:45:20;;;;;;;11.15;7.13;;;2.90;99.90;;;;;;5035710;28;20060;-81
2022/05/03 03:47:47;;;;;;;9.15;5.90;;;3.00;99.90;;;;;;5035458;28;20127;-83
2022/05/03 03:50:13;;;;;;;11.40;7.60;;;3.00;99.90;;;;;;5035234;28;20197;-81
2022/05/03 03:52:44;;;;;;;10.88;7.03;;;3.10;99.90;;;;;;5018318;28;20057;-81
2022/05/03 03:55:11;;;;;;;12.48;7.05;;;3.10;99.90;;;;;;5035117;28;20052;-83
2022/05/03 03:57:38;;;;;;;12.30;7.30;;;3.10;99.90;;;;;;5052817;28;20052;-82
2022/05/03 04:00:07;;;;;;;11.60;6.88;;;3.10;99.90;;;;;;5053349;28;20053;-81
2022/05/03 04:02:34;;;;;;;10.73;6.60;;;3.10;99.90;;;;;;5053137;28;20040;-81
2022/05/03 04:05:00;;;;;;;9.75;6.75;;;3.00;99.90;;;;;;5035244;28;20489;-82
2022/05/03 04:07:26;;;;;;;13.18;7.47;;;3.00;99.90;;;;;;5052992;28;20059;-81
2022/05/03 04:09:51;;;;;;;11.00;7.13;;;3.00;99.90;;;;;;5052859;28;20479;-81
2022/05/03 04:12:21;;;;;;;11.60;7.38;;;2.90;99.90;;;;;;5018573;28;20052;-81
2022/05/03 04:14:47;;;;;;;13.50;8.10;;;2.90;99.90;;;;;;5052908;28;20048;-82
2022/05/03 04:17:15;;;;;;;13.57;8.48;;;2.90;99.90;;;;;;5052678;28;20041;-81
2022/05/03 04:19:42;;;;;;;14.13;8.45;;;2.90;99.90;;;;;;5051779;28;20048;-81
2022/05/03 04:22:31;;;;;;;14.88;8.20;;;2.90;99.90;;;;;;5018693;28;20080;-81
2022/05/03 04:24:58;;;;;;;18.15;8.63;;;2.90;99.90;;;;;;5052505;28;20041;-81
2022/05/03 04:27:26;;;;;;;13.32;7.72;;;2.90;99.90;;;;;;5035284;28;20067;-80
2022/05/03 04:29:52;;;;;;;13.45;8.20;;;3.00;99.90;;;;;;5052691;28;20084;-82
2022/05/03 04:32:17;;;;;;;14.88;8.80;;;3.00;99.90;;;;;;5052658;28;20134;-81
2022/05/03 04:34:46;;;;;;;15.23;8.90;;;3.00;99.90;;;;;;5052709;28;20049;-80
2022/05/03 04:37:12;;;;;;;15.43;9.00;;;3.00;99.90;;;;;;5052278;28;20041;-81
2022/05/03 04:39:38;;;;;;;15.70;10.02;;;3.10;99.90;;;;;;5034348;28;20053;-83
2022/05/03 04:42:05;;;;;;;14.82;9.02;;;3.30;99.90;;;;;;5034705;28;20053;-81
2022/05/03 04:44:30;;;;;;;16.05;9.40;;;3.20;99.90;;;;;;5034965;28;20045;-81
2022/05/03 04:46:56;;;;;;;15.73;9.50;;;3.30;99.90;;;;;;5052248;28;20585;-82
2022/05/03 04:49:22;;;;;;;15.75;9.77;;;3.40;99.90;;;;;;5034628;28;20063;-81
2022/05/03 04:51:48;;;;;;;19.52;9.95;;;3.40;99.90;;;;;;5034703;28;20118;-81
2022/05/03 04:54:13;;;;;;;15.68;9.43;;;3.70;99.90;;;;;;5034150;28;20057;-82
2022/05/03 04:56:49;;;;;;;16.63;9.48;;;3.50;99.90;;;;;;5052448;28;20099;-81
2022/05/03 04:59:14;;;;;;;19.90;10.57;;;3.60;99.90;;;;;;5052403;28;20103;-81
2022/05/03 05:01:40;;;;;;;16.17;10.63;;;3.60;99.90;;;;;;5034779;28;20085;-81
2022/05/03 05:04:06;;;;;;;19.20;12.02;;;3.70;99.90;;;;;;5049459;28;20052;-81
2022/05/03 05:06:31;;;;;;;20.23;11.57;;;3.80;99.90;;;;;;5001697;28;20462;-83
2022/05/03 05:08:57;;;;;;;20.50;12.10;;;3.90;99.90;;;;;;5057986;28;20084;-82
2022/05/03 05:11:23;;;;;;;20.08;11.73;;;4.00;99.90;;;;;;5070438;28;20053;-82
2022/05/03 05:13:48;;;;;;;19.02;11.68;;;4.10;99.90;;;;;;5044514;28;20585;-81
2022/05/03 05:16:14;;;;;;;20.45;12.05;;;4.20;99.90;;;;;;5021305;28;20537;-81
2022/05/03 05:18:39;;;;;;;25.83;14.02;;;4.30;99.90;;;;;;5064449;28;20097;-81
2022/05/03 05:21:05;;;;;;;18.80;12.38;;;4.50;99.90;;;;;;5057983;28;20060;-81
2022/05/03 05:23:31;;;;;;;23.02;14.23;;;4.60;99.90;;;;;;5057983;28;20044;-82
2022/05/03 05:25:57;;;;;;;21.38;13.43;;;4.80;99.90;;;;;;5057550;28;20053;-82
2022/05/03 05:28:23;;;;;;;22.00;14.90;;;4.90;99.90;;;;;;5075986;28;20059;-82
2022/05/03 05:30:51;;;;;;;22.45;14.05;;;5.00;99.90;;;;;;5039191;28;20041;-81
2022/05/03 05:33:17;;;;;;;14.70;11.15;;;5.10;99.90;;;;;;5055698;28;20053;-82
2022/05/03 05:35:43;;;;;;;13.88;10.25;;;5.40;99.90;;;;;;5055529;28;20928;-87
2022/05/03 05:38:13;;;;;;;25.27;14.45;;;5.30;99.90;;;;;;5036001;28;20053;-82
2022/05/03 05:40:39;;;;;;;19.83;12.82;;;5.50;99.90;;;;;;5035701;28;20128;-82
2022/05/03 05:43:05;;;;;;;22.73;14.65;;;5.60;99.90;;;;;;5035814;28;20120;-82
2022/05/03 05:45:30;;;;;;;18.70;11.20;;;5.70;99.90;;;;;;5035484;28;20041;-83
2022/05/03 05:47:57;;;;;;;20.27;13.10;;;5.80;99.90;;;;;;5018255;28;20053;-82
2022/05/03 05:50:24;;;;;;;19.00;12.73;;;6.20;99.90;;;;;;5018323;28;20124;-82
2022/05/03 05:55:36;;;;;;;21.65;14.95;;;6.20;99.90;;;;;;5018066;28;20163;-82
2022/05/03 05:58:03;;;;;;;30.42;14.60;;;6.40;99.90;;;;;;5035334;28;20075;-82
2022/05/03 06:00:29;;;;;;;26.63;15.38;;;6.70;99.90;;;;;;5017756;28;20099;-82
2022/05/03 06:02:54;;;;;;;24.05;16.23;;;7.50;99.90;;;;;;5017835;28;20061;-81
2022/05/03 06:05:20;;;;;;;21.42;15.93;;;7.50;99.90;;;;;;5035203;28;20415;-82
2022/05/03 06:07:46;;;;;;;23.58;16.45;;;7.20;99.90;;;;;;5017492;28;20535;-82
2022/05/03 06:10:11;;;;;;;29.42;19.67;;;7.40;99.90;;;;;;5017847;28;20137;-80
2022/05/03 06:12:37;;;;;;;38.47;24.77;;;7.60;99.90;;;;;;5017786;28;20056;-82
2022/05/03 06:15:03;;;;;;;43.05;22.25;;;7.80;99.90;;;;;;5035257;28;20049;-83
2022/05/03 06:17:29;;;;;;;44.42;22.80;;;8.10;99.90;;;;;;5000545;28;20053;-83
2022/05/03 06:19:55;;;;;;;32.22;22.63;;;8.40;99.90;;;;;;5034921;28;20046;-83
2022/05/03 06:22:21;;;;;;;34.17;22.70;;;9.00;99.90;;;;;;5000391;28;20567;-84
2022/05/03 06:24:47;;;;;;;32.92;22.05;;;8.90;99.90;;;;;;5000833;28;20534;-82
2022/05/03 06:27:17;;;;;;;30.90;22.00;;;9.10;99.90;;;;;;5001013;28;20458;-82
2022/05/03 06:29:42;;;;;;;26.35;17.33;;;9.30;99.90;;;;;;5034934;28;20122;-82
2022/05/03 06:32:10;;;;;;;34.72;25.92;;;9.50;99.90;;;;;;5017166;28;20042;-82
2022/05/03 06:34:39;;;;;;;39.05;27.65;;;9.70;99.90;;;;;;5001057;28;20053;-82
2022/05/03 06:37:05;;;;;;;41.05;27.88;;;9.90;99.90;;;;;;5016703;28;20041;-83
2022/05/03 06:39:31;;;;;;;39.28;27.55;;;10.00;99.90;;;;;;5017356;28;20037;-84
2022/05/03 06:41:57;;;;;;;45.63;29.55;;;10.20;99.90;;;;;;5017348;28;20093;-85
2022/05/03 06:44:23;;;;;;;41.45;28.88;;;10.40;99.90;;;;;;5017257;28;20076;-84
2022/05/03 06:46:49;;;;;;;38.65;27.90;;;10.70;99.90;;;;;;5034390;28;20062;-84
2022/05/03 06:49:15;;;;;;;39.85;28.13;;;10.80;99.90;;;;;;5016991;28;20602;-83
2022/05/03 06:51:41;;;;;;;36.67;26.60;;;11.00;99.90;;;;;;5033611;28;20175;-83
2022/05/03 06:54:09;;;;;;;42.35;27.13;;;11.20;99.90;;;;;;5017358;28;20045;-83
2022/05/03 06:56:36;;;;;;;38.00;25.35;;;11.30;99.90;;;;;;5017054;28;20114;-83
2022/05/03 06:59:06;;;;;;;34.58;25.80;;;11.50;99.90;;;;;;5034339;28;20053;-84
2022/05/03 07:01:32;;;;;;;41.70;26.63;;;11.50;99.90;;;;;;5034181;28;20106;-84
2022/05/03 07:03:58;;;;;;;68.20;30.45;;;11.70;99.90;;;;;;5034081;28;20136;-84
2022/05/03 07:06:23;;;;;;;44.63;28.25;;;11.30;99.90;;;;;;5016806;28;20072;-82
2022/05/03 07:08:49;;;;;;;60.70;29.35;;;11.20;99.90;;;;;;5000302;28;20494;-83
2022/05/03 07:11:15;;;;;;;43.05;28.45;;;11.10;99.90;;;;;;5034324;28;20557;-84
2022/05/03 07:13:41;;;;;;;51.53;29.48;;;10.90;99.90;;;;;;5017005;28;20041;-83
2022/05/03 07:16:07;;;;;;;43.40;27.95;;;11.00;99.90;;;;;;5000090;28;20406;-83
2022/05/03 07:24:04;;;;;;;53.22;31.15;;;10.80;99.90;;;;;;5016232;28;20056;-82
2022/05/03 07:26:30;;;;;;;53.90;31.95;;;10.80;99.90;;;;;;5016470;28;20049;-81
2022/05/03 07:28:56;;;;;;;62.53;33.88;;;10.80;99.90;;;;;;5015534;28;20461;-83
2022/05/03 07:31:23;;;;;;;61.17;32.60;;;10.80;99.90;;;;;;5034676;28;20050;-81
2022/05/03 07:33:49;;;;;;;67.97;36.13;;;10.80;99.90;;;;;;5016835;28;20076;-82
2022/05/03 07:36:17;;;;;;;67.32;34.38;;;10.80;99.90;;;;;;5016721;28;20061;-83
2022/05/03 07:38:46;;;;;;;76.97;35.53;;;10.90;99.90;;;;;;5034876;28;20085;-83
2022/05/03 07:41:13;;;;;;;86.38;37.25;;;10.90;99.90;;;;;;5035939;28;20045;-84
2022/05/03 07:43:38;;;;;;;95.00;38.80;;;10.90;99.90;;;;;;5034907;28;20041;-83
2022/05/03 07:46:04;;;;;;;86.53;37.55;;;11.20;99.90;;;;;;5018161;28;20103;-84
2022/05/03 07:48:30;;;;;;;78.57;36.33;;;11.10;99.90;;;;;;5033840;28;20057;-83
2022/05/03 07:50:56;;;;;;;94.53;36.97;;;11.10;99.90;;;;;;5000873;28;20495;-82
2022/05/03 07:53:21;;;;;;;86.90;36.60;;;11.10;99.90;;;;;;5033132;28;20073;-81
2022/05/03 07:55:48;;;;;;;65.50;31.30;;;11.20;99.90;;;;;;5034019;28;20061;-81
2022/05/03 07:58:15;;;;;;;74.13;33.90;;;11.20;99.90;;;;;;5034138;28;20124;-81
2022/05/03 08:00:41;;;;;;;71.35;34.90;;;11.70;99.90;;;;;;5034193;28;20087;-82
2022/05/03 08:03:07;;;;;;;69.13;34.60;;;11.30;99.90;;;;;;5016424;28;20046;-81
2022/05/03 08:05:33;;;;;;;83.18;35.03;;;11.40;99.90;;;;;;5016281;28;20372;-81
2022/05/03 08:07:59;;;;;;;92.90;38.13;;;11.50;99.90;;;;;;5016124;28;20049;-84
2022/05/03 08:10:25;;;;;;;102.28;39.65;;;11.60;99.90;;;;;;5033311;28;20065;-84
2022/05/03 08:12:51;;;;;;;118.88;40.67;;;11.60;99.90;;;;;;5015822;28;20048;-82
2022/05/03 08:15:20;;;;;;;103.85;41.50;;;11.50;99.90;;;;;;5016182;28;20103;-81
2022/05/03 08:17:47;;;;;;;105.90;41.47;;;11.50;99.90;;;;;;5015534;28;20128;-82
2022/05/03 08:20:13;;;;;;;95.43;38.58;;;11.60;99.90;;;;;;5015746;28;20099;-81
2022/05/03 08:22:43;;;;;;;105.18;39.88;;;11.50;99.90;;;;;;5015619;28;20052;-83
2022/05/03 08:25:09;;;;;;;98.22;39.42;;;11.60;99.90;;;;;;5032988;28;20514;-81
2022/05/03 08:27:38;;;;;;;99.88;38.75;;;11.30;99.90;;;;;;5033225;28;20037;-82
2022/05/03 08:30:08;;;;;;;113.15;37.80;;;11.20;99.90;;;;;;5015549;28;20133;-81
2022/05/03 08:32:33;;;;;;;75.50;31.85;;;11.20;99.90;;;;;;5015674;28;20056;-81
2022/05/03 08:34:59;;;;;;;70.55;31.13;;;11.20;99.90;;;;;;5015378;28;20061;-82
2022/05/03 08:42:53;;;;;;;54.67;25.30;;;11.50;99.90;;;;;;5032698;28;20065;-84
2022/05/03 08:45:20;;;;;;;47.15;23.00;;;11.60;99.90;;;;;;4997543;28;20053;-80
2022/05/03 08:47:48;;;;;;;45.05;23.10;;;11.60;99.90;;;;;;4999007;28;20061;-81
2022/05/03 08:50:18;;;;;;;45.28;21.95;;;11.60;99.90;;;;;;5032656;28;20052;-80
2022/05/03 08:52:55;;;;;;;45.20;22.77;;;11.70;99.90;;;;;;5014824;28;20068;-82
2022/05/03 08:55:22;;;;;;;47.38;22.08;;;11.60;99.90;;;;;;5014822;28;20056;-82
2022/05/03 08:57:48;;;;;;;41.75;21.23;;;11.50;99.90;;;;;;5018816;28;20045;-82
2022/05/03 09:00:16;;;;;;;42.88;21.60;;;11.60;99.90;;;;;;5050885;28;20055;-81
2022/05/03 09:02:46;;;;;;;45.90;23.20;;;11.60;99.90;;;;;;5033325;28;20128;-82
2022/05/03 09:05:13;;;;;;;41.63;21.57;;;11.70;99.90;;;;;;5051289;28;20045;-83
2022/05/03 09:07:48;;;;;;;43.88;22.35;;;11.70;99.90;;;;;;5051536;28;20048;-82
2022/05/03 09:10:19;;;;;;;40.85;22.35;;;11.80;99.90;;;;;;5022481;28;20037;-83
2022/05/03 09:12:45;;;;;;;40.17;23.43;;;11.80;99.90;;;;;;5033699;28;20056;-81
2022/05/03 09:15:12;;;;;;;45.25;23.73;;;11.70;99.90;;;;;;5052074;28;20053;-82
2022/05/03 09:17:38;;;;;;;45.90;23.55;;;11.90;99.90;;;;;;5034228;28;20044;-81
2022/05/03 09:26:13;;;;;;;44.13;19.30;;;11.60;99.90;;;;;;5052335;28;20457;-81
2022/05/03 09:28:49;;;;;;;40.40;18.98;;;11.60;99.90;;;;;;5034213;28;20565;-81
2022/05/03 09:31:39;;;;;;;38.45;17.88;;;11.60;99.90;;;;;;5033969;28;20088;-83
2022/05/03 09:34:25;;;;;;;32.08;16.63;;;11.80;99.90;;;;;;5052146;28;20053;-81
2022/05/03 09:36:59;;;;;;;31.05;13.50;;;11.80;99.90;;;;;;5033827;28;20501;-83
2022/05/03 09:39:27;;;;;;;24.23;12.40;;;12.20;99.90;;;;;;5033597;28;20167;-83
2022/05/03 09:42:16;;;;;;;22.80;11.23;;;11.90;99.90;;;;;;5051948;28;20132;-83
2022/05/03 09:44:52;;;;;;;21.17;10.73;;;11.80;99.90;;;;;;5034336;28;20118;-82
2022/05/03 09:47:26;;;;;;;25.40;10.27;;;11.80;99.90;;;;;;5033840;28;20136;-82
2022/05/03 09:49:52;;;;;;;22.25;11.43;;;11.80;99.90;;;;;;5050779;28;20045;-82
2022/05/03 09:52:29;;;;;;;21.75;11.40;;;11.70;99.90;;;;;;5019009;28;20052;-82
2022/05/03 09:55:03;;;;;;;21.30;9.63;;;11.70;99.90;;;;;;5018407;28;20050;-82
2022/05/03 09:57:33;;;;;;;21.27;9.43;;;11.70;99.90;;;;;;5001005;28;20049;-82
2022/05/03 10:00:00;;;;;;;16.85;8.68;;;11.70;99.90;;;;;;5018182;28;20085;-82
2022/05/03 10:02:29;;;;;;;17.30;8.98;;;11.60;99.90;;;;;;5035637;28;20052;-82
2022/05/03 10:04:56;;;;;;;19.88;9.25;;;12.00;99.90;;;;;;5035425;28;20463;-83
2022/05/03 10:07:25;;;;;;;19.38;9.85;;;11.80;99.90;;;;;;5018332;28;20054;-82
2022/05/03 10:09:52;;;;;;;16.83;9.63;;;11.50;99.90;;;;;;5035583;28;20135;-82
2022/05/03 10:12:18;;;;;;;18.83;9.25;;;11.50;99.90;;;;;;5035378;28;20053;-83
2022/05/03 10:14:46;;;;;;;14.85;8.38;;;11.50;99.90;;;;;;5035232;28;20041;-81
2022/05/03 10:20:38;;;;;;;15.63;7.85;;;11.50;99.90;;;;;;5017629;28;20049;-84
2022/05/03 10:23:16;;;;;;;20.08;8.43;;;11.50;99.90;;;;;;5017678;28;20057;-81
2022/05/03 10:25:42;;;;;;;17.55;8.25;;;11.50;99.90;;;;;;5017068;28;20111;-82
2022/05/03 10:28:08;;;;;;;17.58;7.85;;;11.50;99.90;;;;;;5035064;28;20049;-83
2022/05/03 10:30:34;;;;;;;25.10;8.77;;;11.50;99.90;;;;;;5035342;28;20041;-82
2022/05/03 10:33:19;;;;;;;28.50;9.73;;;11.40;99.90;;;;;;5017361;28;20049;-87
2022/05/03 10:35:45;;;;;;;32.20;9.60;;;11.50;99.90;;;;;;5017544;28;20057;-82
2022/05/03 10:38:11;;;;;;;21.95;9.00;;;11.40;99.90;;;;;;5017049;28;20133;-82
2022/05/03 10:40:44;;;;;;;20.75;9.40;;;11.40;99.90;;;;;;5017263;28;20457;-83
2022/05/03 10:43:27;;;;;;;21.40;8.55;;;11.50;99.90;;;;;;5017481;28;20053;-83
2022/05/03 10:46:10;;;;;;;25.20;9.82;;;11.50;99.90;;;;;;5012111;28;20532;-85
2022/05/03 10:48:37;;;;;;;44.78;9.82;;;11.50;99.90;;;;;;5015193;28;20400;-82
2022/05/03 10:51:07;;;;;;;24.95;8.93;;;11.50;99.90;;;;;;5014911;28;20049;-83
2022/05/03 10:53:36;;;;;;;43.67;10.05;;;11.60;99.90;;;;;;4997153;28;20050;-85
2022/05/03 10:56:06;;;;;;;29.83;8.57;;;11.60;99.90;;;;;;4997467;28;20064;-85
2022/05/03 10:58:35;;;;;;;25.48;8.20;;;11.60;99.90;;;;;;4997253;28;20104;-85
2022/05/03 11:01:14;;;;;;;17.70;7.80;;;11.70;99.90;;;;;;5013509;28;20373;-85
2022/05/03 11:03:54;;;;;;;20.40;7.68;;;11.70;99.90;;;;;;4996169;28;20056;-85
2022/05/03 11:06:21;;;;;;;18.70;7.30;;;12.20;99.90;;;;;;5012956;28;20058;-88
2022/05/03 11:09:08;;;;;;;24.63;8.35;;;11.90;99.90;;;;;;4997187;28;20050;-83
2022/05/03 11:11:43;;;;;;;27.05;7.40;;;12.00;99.90;;;;;;5012913;28;20057;-83
2022/05/03 11:14:15;;;;;;;26.23;7.13;;;12.40;99.90;;;;;;5013184;28;20100;-83
2022/05/03 11:16:47;;;;;;;24.75;7.68;;;12.00;99.90;;;;;;5014559;28;20049;-82
2022/05/03 11:19:15;;;;;;;30.13;7.57;;;12.10;99.90;;;;;;4997199;28;20107;-82
2022/05/03 11:21:41;;;;;;;19.00;6.30;;;12.10;99.90;;;;;;5014537;28;20129;-83
2022/05/03 11:24:24;;;;;;;24.50;7.60;;;12.20;99.90;;;;;;5014167;28;20064;-82
2022/05/03 11:26:52;;;;;;;20.23;7.05;;;12.30;99.90;;;;;;5013237;28;20400;-83
2022/05/03 11:29:18;;;;;;;25.05;7.30;;;12.30;99.90;;;;;;4996666;28;20076;-81
2022/05/03 11:31:49;;;;;;;22.60;6.43;;;12.40;99.90;;;;;;4996801;28;20439;-82
2022/05/03 11:34:17;;;;;;;28.15;6.63;;;12.50;99.90;;;;;;4979797;28;20415;-82
2022/05/03 11:36:49;;;;;;;18.73;6.80;;;12.40;99.90;;;;;;4996756;28;20064;-82
2022/05/03 11:39:16;;;;;;;14.98;5.93;;;12.50;99.90;;;;;;5013772;28;20049;-82
2022/05/03 11:41:42;;;;;;;14.10;5.78;;;12.60;99.90;;;;;;4996259;28;20125;-82
2022/05/03 11:44:09;;;;;;;18.80;6.40;;;12.70;99.90;;;;;;4996806;28;20045;-82
2022/05/03 11:46:37;;;;;;;19.13;5.90;;;12.90;99.90;;;;;;5007289;28;20511;-82
2022/05/03 11:49:07;;;;;;;19.52;5.57;;;13.10;99.90;;;;;;5015992;28;20407;-84
2022/05/03 11:57:22;;;;;;;21.20;5.63;;;13.50;99.90;;;;;;5033360;28;20462;-82
2022/05/03 11:59:55;;;;;;;12.37;5.10;;;13.60;99.90;;;;;;5016148;28;20526;-83
2022/05/03 12:02:34;;;;;;;13.63;5.32;;;13.80;99.90;;;;;;5032235;28;20053;-81
2022/05/03 12:05:07;;;;;;;14.35;5.50;;;13.80;99.90;;;;;;5015844;28;20038;-83
2022/05/03 12:07:36;;;;;;;13.38;5.32;;;13.80;99.90;;;;;;5033338;28;20099;-82
2022/05/03 12:10:26;;;;;;;17.00;4.88;;;14.00;99.90;;;;;;5016058;28;20053;-83
2022/05/03 12:13:08;;;;;;;21.48;4.80;;;14.00;99.90;;;;;;5033156;28;20084;-82
2022/05/03 12:15:40;;;;;;;19.10;5.30;;;14.10;99.90;;;;;;5033161;28;20060;-82
2022/05/03 12:18:15;;;;;;;11.85;4.50;;;14.10;99.90;;;;;;5033077;28;20168;-83
2022/05/03 12:20:41;;;;;;;15.05;4.05;;;14.20;99.90;;;;;;4999340;28;20041;-82
2022/05/03 12:23:25;;;;;;;15.85;4.55;;;14.30;99.90;;;;;;5015871;28;20060;-82
2022/05/03 12:25:59;;;;;;;22.45;4.60;;;14.40;99.90;;;;;;5032696;28;20057;-82
2022/05/03 12:28:39;;;;;;;25.92;5.18;;;14.40;99.90;;;;;;4999202;28;20395;-89
2022/05/03 12:31:07;;;;;;;27.45;5.40;;;14.50;99.90;;;;;;5031878;28;20048;-82
2022/05/03 12:33:33;;;;;;;24.42;5.80;;;14.60;99.90;;;;;;5033178;28;20057;-84
2022/05/03 12:35:59;;;;;;;22.10;4.80;;;14.80;99.90;;;;;;4999094;28;20248;-82
2022/05/03 12:38:26;;;;;;;18.00;4.40;;;14.70;99.90;;;;;;5014840;28;20517;-82
2022/05/03 12:40:54;;;;;;;11.20;3.85;;;14.70;99.90;;;;;;4998956;28;20049;-82
2022/05/03 12:43:23;;;;;;;18.45;4.25;;;15.00;99.90;;;;;;5015509;28;20100;-81
2022/05/03 12:46:03;;;;;;;13.70;3.97;;;15.60;99.90;;;;;;5032686;28;20066;-82
2022/05/03 12:48:38;;;;;;;14.32;4.00;;;16.30;99.90;;;;;;5015306;28;20053;-82
2022/05/03 12:51:04;;;;;;;11.07;3.42;;;16.70;99.90;;;;;;5032390;28;20052;-83
2022/05/03 12:53:33;;;;;;;12.50;3.95;;;16.70;99.90;;;;;;5015230;28;20491;-83
2022/05/03 12:58:21;;;;;;;12.32;3.17;;;16.60;99.90;;;;;;5015336;28;20138;-83
2022/05/03 12:58:47;;;;;;;16.45;3.75;;;16.60;99.90;;;;;;5032296;28;20060;-82
2022/05/03 13:01:13;;;;;;;19.38;4.03;;;16.50;99.90;;;;;;5014882;28;20458;-83
2022/05/03 13:03:39;;;;;;;21.48;3.45;;;16.50;99.90;;;;;;5032390;28;20132;-82
2022/05/03 13:06:05;;;;;;;13.02;3.35;;;16.50;99.90;;;;;;5015398;28;20467;-82
2022/05/03 13:08:31;;;;;;;41.85;5.60;;;16.50;99.90;;;;;;5031440;28;20084;-82
2022/05/03 13:11:00;;;;;;;32.45;5.25;;;16.50;99.90;;;;;;5031420;28;20045;-83
2022/05/03 13:13:26;;;;;;;13.25;3.13;;;16.50;99.90;;;;;;5014867;28;20088;-83
2022/05/03 13:15:52;;;;;;;9.15;2.92;;;16.30;98.50;;;;;;5015069;28;20084;-83
2022/05/03 13:18:18;;;;;;;8.02;2.97;;;16.10;98.90;;;;;;5014583;28;20061;-86
2022/05/03 13:20:43;;;;;;;6.57;2.83;;;16.00;98.90;;;;;;5015133;28;20081;-83
2022/05/03 13:23:13;;;;;;;9.20;2.97;;;15.80;99.30;;;;;;5032429;28;20077;-84
2022/05/03 13:25:39;;;;;;;12.98;3.15;;;15.80;99.90;;;;;;4998833;28;20061;-84
2022/05/03 13:28:06;;;;;;;9.23;2.80;;;15.90;99.90;;;;;;5036285;28;20041;-83
2022/05/03 13:30:33;;;;;;;7.88;2.60;;;15.80;99.90;;;;;;5036166;28;20498;-83
2022/05/03 13:32:59;;;;;;;11.25;3.05;;;15.90;99.90;;;;;;5035986;28;20527;-87